METAR Data
IDs: Format: Raw Decoded Include TAF

Data at: 1736 UTC 16 Oct 2021

KPEQ 161710Z AUTO 12012G17KT 10SM CLR 18/00 A3044 RMK AO2 T01831005 PWINO
KPEQ 161650Z AUTO 09011G18KT 10SM CLR 18/00 A3045 RMK AO2 T01791004 PWINO
KPEQ 161630Z AUTO 11012G15KT 10SM CLR 17/00 A3045 RMK AO2 T01730000 PWINO
KPEQ 161610Z AUTO 10012G18KT 10SM CLR 17/00 A3046 RMK AO2 T01690003 PWINO
KPEQ 161550Z AUTO 12005KT 10SM CLR 15/00 A3046 RMK AO2 T01530003 PWINO
KPEQ 161530Z AUTO 10006KT 10SM CLR 15/00 A3046 RMK AO2 T01450004 PWINO
KPEQ 161510Z AUTO 09003KT 10SM CLR 13/00 A3046 RMK AO2 T01310000 PWINO
KPEQ 161450Z AUTO 04003KT 10SM CLR 11/M01 A3046 RMK AO2 T01121006 PWINO
KPEQ 161430Z AUTO 01003KT 10SM CLR 10/M01 A3045 RMK AO2 T01011011 PWINO
KPEQ 161410Z AUTO 03003KT 10SM CLR 09/M02 A3045 RMK AO2 T00921016 PWINO
KPEQ 161350Z AUTO 00000KT 10SM CLR 08/M02 A3044 RMK AO2 T00801022 PWINO
KPEQ 161330Z AUTO 34003KT 10SM CLR 07/M03 A3044 RMK AO2 T00701027 PWINO
KPEQ 161310Z AUTO 35003KT 10SM CLR 06/M03 A3043 RMK AO2 T00641028 PWINO
KPEQ 161250Z AUTO 01004KT 10SM CLR 07/M03 A3043 RMK AO2 T00651030 PWINO
KPEQ 161230Z AUTO 35003KT 10SM CLR 06/M04 A3043 RMK AO2 T00551037 PWINO
KPEQ 161210Z AUTO 34003KT 10SM CLR 06/M03 A3042 RMK AO2 T00551035 PWINO
KPEQ 161150Z AUTO 31003KT 10SM CLR 05/M04 A3042 RMK AO2 T00521040 PWINO
KPEQ 161130Z AUTO 30003KT 10SM CLR 06/M04 A3041 RMK AO2 T00551042 PWINO
KPEQ 161110Z AUTO 32003KT 10SM CLR 07/M04 A3040 RMK AO2 T00671037 PWINO
KPEQ 161050Z AUTO 00000KT 10SM CLR 07/M04 A3039 RMK AO2 T00731036 PWINO
KPEQ 161030Z AUTO 00000KT 10SM CLR 08/M04 A3039 RMK AO2 T00751036 PWINO
KPEQ 161010Z AUTO 00000KT 10SM CLR 08/M03 A3039 RMK AO2 T00751034 PWINO
KPEQ 160950Z AUTO 00000KT 10SM CLR 07/M04 A3039 RMK AO2 T00721042 PWINO
KPEQ 160930Z AUTO 00000KT 10SM CLR 08/M03 A3038 RMK AO2 T00821032 PWINO
KPEQ 160910Z AUTO 00000KT 10SM CLR 08/M04 A3039 RMK AO2 T00821038 PWINO
KPEQ 160850Z AUTO 00000KT 10SM CLR 08/M03 A3039 RMK AO2 T00841035 PWINO
KPEQ 160830Z AUTO 00000KT 10SM CLR 08/M04 A3039 RMK AO2 T00831039 PWINO
KPEQ 160810Z AUTO 00000KT 10SM CLR 09/M03 A3039 RMK AO2 T00881035 PWINO
KPEQ 160750Z AUTO 00000KT 10SM CLR 09/M04 A3039 RMK AO2 T00871036 PWINO
KPEQ 160730Z AUTO 15003KT 10SM CLR 09/M03 A3038 RMK AO2 T00901035 PWINO
KPEQ 160710Z AUTO 00000KT 10SM CLR 10/M03 A3038 RMK AO2 T01011032 PWINO
KPEQ 160650Z AUTO 08005KT 10SM CLR 11/M03 A3037 RMK AO2 T01061030 PWINO
KPEQ 160630Z AUTO 09004KT 10SM CLR 11/M03 A3037 RMK AO2 T01051031 PWINO
KPEQ 160610Z AUTO 08005KT 10SM CLR 11/M03 A3036 RMK AO2 T01051031 PWINO
KPEQ 160550Z AUTO 07004KT 10SM CLR 11/M03 A3036 RMK AO2 T01131030 PWINO
KPEQ 160530Z AUTO 07006KT 10SM CLR 12/M03 A3036 RMK AO2 T01201030 PWINO
KPEQ 160510Z AUTO 07006KT 10SM CLR 12/M03 A3035 RMK AO2 T01211030 PWINO
KPEQ 160450Z AUTO 06006KT 10SM CLR 14/M03 A3035 RMK AO2 T01371026 PWINO
KPEQ 160430Z AUTO 05006KT 10SM CLR 14/M03 A3034 RMK AO2 T01391026 PWINO
KPEQ 160410Z AUTO 07006KT 10SM CLR 14/M03 A3034 RMK AO2 T01361029 PWINO
KPEQ 160350Z AUTO 04005KT 10SM CLR 14/M03 A3033 RMK AO2 T01401026 PWINO
KPEQ 160330Z AUTO 05005KT 7SM CLR 15/M03 A3031 RMK AO2 T01461026 PWINO
KPEQ 160310Z AUTO 04007KT 10SM CLR 15/M03 A3030 RMK AO2 T01531026 PWINO
KPEQ 160250Z AUTO 03005KT 10SM CLR 16/M02 A3030 RMK AO2 T01551025 PWINO
KPEQ 160230Z AUTO 03006KT 10SM CLR 16/M02 A3029 RMK AO2 T01611025 PWINO
KPEQ 160210Z AUTO 02006KT 10SM CLR 17/M03 A3028 RMK AO2 T01701027 PWINO
KPEQ 160150Z AUTO 03006KT 10SM CLR 18/M03 A3027 RMK AO2 T01771027 PWINO
KPEQ 160130Z AUTO 03007KT 10SM CLR 19/M03 A3026 RMK AO2 T01861027 PWINO
KPEQ 160110Z AUTO 02006KT 10SM CLR 19/M03 A3025 RMK AO2 T01911026 PWINO
KPEQ 160050Z AUTO 02007KT 10SM CLR 20/M02 A3024 RMK AO2 T01951025 PWINO
KPEQ 160030Z AUTO 01005KT 10SM CLR 20/M03 A3024 RMK AO2 T02041026 PWINO
KPEQ 160010Z AUTO 01006KT 10SM CLR 21/M02 A3023 RMK AO2 T02111025 PWINO
KPEQ 152350Z AUTO 01007KT 10SM CLR 22/M02 A3023 RMK AO2 T02171023 PWINO
KPEQ 152330Z AUTO 02008KT 10SM CLR 22/M03 A3022 RMK AO2 T02211026 PWINO
KPEQ 152310Z AUTO 02005KT 10SM CLR 22/M02 A3022 RMK AO2 T02231021 PWINO
KPEQ 152250Z AUTO 01005KT 10SM CLR 23/M02 A3021 RMK AO2 T02261019 PWINO
KPEQ 152230Z AUTO 03008KT 10SM CLR 23/M02 A3021 RMK AO2 T02281017 PWINO
KPEQ 152210Z AUTO 02006KT 10SM CLR 23/M02 A3021 RMK AO2 T02271018 PWINO
KPEQ 152150Z AUTO 01006G14KT 10SM CLR 23/M01 A3020 RMK AO2 T02321015 PWINO
KPEQ 152130Z AUTO 01009G17KT 10SM CLR 23/M02 A3021 RMK AO2 T02291016 PWINO
KPEQ 152110Z AUTO 02006G09KT 10SM CLR 23/M02 A3020 RMK AO2 T02301021 PWINO
KPEQ 152050Z AUTO 01009KT 340V040 10SM CLR 23/M02 A3020 RMK AO2 T02311017 PWINO
KPEQ 152030Z AUTO 32011G20KT 310V040 10SM CLR 23/M01 A3020 RMK AO2 T02281015 PWINO
KPEQ 152010Z AUTO 35006KT 10SM CLR 23/M02 A3021 RMK AO2 T02251021 PWINO
KPEQ 151950Z AUTO 35013G16KT 10SM CLR 23/M02 A3022 RMK AO2 T02301024 PWINO
KPEQ 151930Z AUTO 36011G19KT 10SM CLR 23/M02 A3023 RMK AO2 T02251018 PWINO
KPEQ 151910Z AUTO 33011G17KT 290V020 10SM CLR 22/M01 A3023 RMK AO2 T02221015 PWINO
KPEQ 151850Z AUTO 34012G18KT 10SM CLR 22/M02 A3023 RMK AO2 T02191018 PWINO
KPEQ 151830Z AUTO 33016G21KT 10SM CLR 22/M02 A3024 RMK AO2 T02201019 PWINO
KPEQ 151810Z AUTO 35008G20KT 10SM CLR 21/M01 A3025 RMK AO2 T02131015 PWINO
KPEQ 151750Z AUTO 34013G17KT 10SM CLR 21/M02 A3025 RMK AO2 T02141019 PWINO
KPEQ 151730Z AUTO 36011G18KT 10SM CLR 21/M02 A3026 RMK AO2 T02091023 PWINO
KPEQ 151710Z AUTO 33016KT 10SM CLR 21/M03 A3026 RMK AO2 T02081027 PWINO
KPEQ 151650Z AUTO 34014G21KT 10SM CLR 20/M03 A3026 RMK AO2 T02011028 PWINO
KPEQ 151630Z AUTO 33013G18KT 10SM CLR 20/M02 A3026 RMK AO2 T02021018 PWINO
KPEQ 151610Z AUTO 35013G17KT 10SM CLR 20/M02 A3026 RMK AO2 T01961020 PWINO
KPEQ 151550Z AUTO 34010KT 10SM CLR 19/M03 A3026 RMK AO2 T01861026 PWINO
KPEQ 151530Z AUTO 34012KT 10SM CLR 18/M03 A3025 RMK AO2 T01771030 PWINO
KPEQ 151510Z AUTO 34015KT 10SM CLR 17/M03 A3023 RMK AO2 T01701035 PWINO
KPEQ 151450Z AUTO 34012G17KT 10SM CLR 17/M04 A3022 RMK AO2 T01671036 PWINO
KPEQ 151430Z AUTO 33011KT 10SM CLR 16/M04 A3020 RMK AO2 T01571040 PWINO
KPEQ 151410Z AUTO 32011KT 10SM CLR 15/M04 A3019 RMK AO2 T01481045 PWINO
KPEQ 151350Z AUTO 32011KT 10SM CLR 14/M05 A3017 RMK AO2 T01421050 PWINO
KPEQ 151330Z AUTO 31010KT 10SM CLR 14/M05 A3016 RMK AO2 T01381053 PWINO
KPEQ 151310Z AUTO 31010KT 10SM CLR 14/M05 A3014 RMK AO2 T01351055 PWINO
KPEQ 151250Z AUTO 31010KT 10SM CLR 14/M05 A3013 RMK AO2 T01381055 PWINO
KPEQ 151230Z AUTO 31010KT 10SM CLR 14/M06 A3012 RMK AO2 T01361056 PWINO
KPEQ 151210Z AUTO 30008KT 10SM CLR 14/M05 A3011 RMK AO2 T01351055 PWINO
KPEQ 151150Z AUTO 29008KT 10SM CLR 14/M06 A3010 RMK AO2 T01361057 PWINO
KPEQ 151130Z AUTO 29010KT 10SM CLR 15/M06 A3008 RMK AO2 T01451058 PWINO
KPEQ 151110Z AUTO 29008KT 10SM CLR 15/M06 A3006 RMK AO2 T01471058 PWINO
KPEQ 151050Z AUTO 30008KT 10SM CLR 14/M05 A3005 RMK AO2 T01421051 PWINO
KPEQ 151030Z AUTO 30008KT 10SM CLR 14/M05 A3005 RMK AO2 T01371047 PWINO
KPEQ 151010Z AUTO 33003KT 10SM CLR 12/M03 A3004 RMK AO2 T01161026 PWINO
KPEQ 150950Z AUTO 00000KT 10SM CLR 13/M02 A3002 RMK AO2 T01271025 PWINO
KPEQ 150930Z AUTO 00000KT 10SM CLR 13/M02 A3000 RMK AO2 T01251025 PWINO
KPEQ 150910Z AUTO 00000KT 10SM CLR 15/M02 A3000 RMK AO2 T01461025 PWINO
KPEQ 150850Z AUTO 00000KT 10SM CLR 16/M02 A3000 RMK AO2 T01581023 PWINO
KPEQ 150830Z AUTO 26005KT 10SM CLR 16/M02 A2999 RMK AO2 T01591020 PWINO
KPEQ 150810Z AUTO 29006KT 10SM CLR 17/M02 A2998 RMK AO2 T01661020 PWINO
KPEQ 150750Z AUTO 33004KT 10SM CLR 17/M02 A2998 RMK AO2 T01651016 PWINO
KPEQ 150730Z AUTO 33007KT 10SM CLR 16/M01 A2998 RMK AO2 T01631015 PWINO
KPEQ 150710Z AUTO 36006KT 10SM CLR 16/M01 A2998 RMK AO2 T01561014 PWINO
KPEQ 150650Z AUTO 20006KT 10SM CLR 17/M02 A2998 RMK AO2 T01691018 PWINO
KPEQ 150630Z AUTO 22007KT 10SM CLR 17/M02 A2997 RMK AO2 T01671018 PWINO
KPEQ 150615Z AUTO 20007KT 10SM CLR 17/M02 A2997 RMK AO2 T01651019 PWINO
KPEQ 150550Z AUTO 22008KT 10SM CLR 17/M02 A2996 RMK AO2 T01731020 PWINO